createdAt,value
2022-12-28T00:01:19.470Z,5.10
2022-12-28T00:03:48.149Z,4.82
2022-12-28T00:06:18.163Z,3.88
2022-12-28T00:08:46.235Z,4.05
2022-12-28T00:11:28.049Z,4.30
2022-12-28T00:14:00.071Z,4.13
2022-12-28T00:16:29.971Z,4.07
2022-12-28T00:18:58.972Z,4.75
2022-12-28T00:21:28.617Z,3.47
2022-12-28T00:23:58.401Z,3.87
2022-12-28T00:26:27.690Z,3.90
2022-12-28T00:28:59.989Z,4.20
2022-12-28T00:31:31.411Z,4.80
2022-12-28T00:33:59.083Z,5.43
2022-12-28T00:37:10.586Z,6.20
2022-12-28T00:39:15.816Z,6.50
2022-12-28T00:41:43.763Z,5.78
2022-12-28T00:44:11.431Z,5.63
2022-12-28T00:46:39.193Z,4.75
2022-12-28T00:49:06.838Z,5.15
2022-12-28T00:51:36.262Z,5.00
2022-12-28T00:54:03.973Z,4.70
2022-12-28T00:56:31.605Z,6.10
2022-12-28T00:59:00.760Z,7.13
2022-12-28T01:01:30.239Z,6.03
2022-12-28T01:03:59.440Z,5.15
2022-12-28T01:06:28.448Z,5.82
2022-12-28T01:08:57.426Z,5.60
2022-12-28T01:11:27.476Z,6.65
2022-12-28T01:13:56.722Z,7.70
2022-12-28T01:16:26.707Z,7.65
2022-12-28T01:18:56.486Z,8.10
2022-12-28T01:21:29.379Z,7.95
2022-12-28T01:24:00.536Z,7.60
2022-12-28T01:26:29.090Z,8.93
2022-12-28T01:28:56.954Z,8.70
2022-12-28T01:31:24.575Z,9.60
2022-12-28T01:33:52.486Z,9.43
2022-12-28T01:36:22.451Z,9.63
2022-12-28T01:38:53.858Z,9.82
2022-12-28T01:41:24.578Z,9.60
2022-12-28T01:44:25.677Z,9.35
2022-12-28T01:46:57.116Z,8.82
2022-12-28T01:49:29.672Z,8.65
2022-12-28T01:52:03.452Z,9.07
2022-12-28T01:54:35.591Z,8.40
2022-12-28T01:57:05.239Z,8.52
2022-12-28T01:59:38.737Z,8.90
2022-12-28T02:02:06.676Z,9.45
2022-12-28T02:04:34.484Z,9.07
2022-12-28T02:07:02.393Z,8.90
2022-12-28T02:09:36.929Z,8.70
2022-12-28T02:12:07.699Z,8.38
2022-12-28T02:14:36.089Z,8.35
2022-12-28T02:17:03.790Z,9.10
2022-12-28T02:19:39.093Z,8.88
2022-12-28T02:22:36.346Z,8.20
2022-12-28T02:25:34.050Z,8.35
2022-12-28T02:28:16.003Z,8.50
2022-12-28T02:30:51.056Z,8.55
2022-12-28T02:33:24.648Z,9.07
2022-12-28T02:35:58.334Z,10.80
2022-12-28T02:38:32.753Z,11.93
2022-12-28T02:41:06.076Z,10.98
2022-12-28T02:43:34.942Z,10.43
2022-12-28T02:46:29.150Z,9.33
2022-12-28T02:49:29.201Z,8.60
2022-12-28T02:52:04.490Z,9.02
2022-12-28T02:55:24.354Z,8.77
2022-12-28T02:58:07.042Z,8.90
2022-12-28T03:00:45.499Z,9.02
2022-12-28T03:03:23.693Z,8.20
2022-12-28T03:06:19.552Z,7.63
2022-12-28T03:08:56.836Z,7.38
2022-12-28T03:11:31.274Z,7.13
2022-12-28T03:14:04.009Z,7.30
2022-12-28T03:16:57.259Z,7.20
2022-12-28T03:19:48.106Z,6.80
2022-12-28T03:22:34.311Z,7.18
2022-12-28T03:25:25.766Z,7.20
2022-12-28T03:28:12.185Z,7.22
2022-12-28T03:31:01.561Z,6.95
2022-12-28T03:33:29.427Z,6.93
2022-12-28T03:36:04.801Z,6.85
2022-12-28T03:38:42.256Z,6.93
2022-12-28T03:41:14.638Z,6.70
2022-12-28T03:43:47.255Z,6.38
2022-12-28T03:46:20.658Z,6.60
2022-12-28T03:48:49.615Z,6.15
2022-12-28T03:51:23.882Z,6.50
2022-12-28T03:53:52.120Z,6.60
2022-12-28T03:56:21.698Z,6.47
2022-12-28T03:58:49.833Z,6.30
2022-12-28T04:01:17.492Z,6.50
2022-12-28T04:03:45.398Z,6.82
2022-12-28T04:06:15.960Z,6.60
2022-12-28T04:08:45.198Z,6.22
2022-12-28T04:11:13.126Z,6.57
2022-12-28T04:13:40.760Z,6.72
2022-12-28T04:16:15.337Z,6.40
2022-12-28T04:18:43.561Z,6.32
2022-12-28T04:21:12.345Z,6.25
2022-12-28T04:23:40.045Z,6.25
2022-12-28T04:26:11.450Z,5.90
2022-12-28T04:28:39.566Z,6.60
2022-12-28T04:31:08.921Z,6.40
2022-12-28T04:33:38.161Z,6.60
2022-12-28T04:36:06.860Z,6.10
2022-12-28T04:38:34.557Z,6.22
2022-12-28T04:41:03.067Z,5.80
2022-12-28T04:43:32.165Z,5.80
2022-12-28T04:46:01.288Z,5.78
2022-12-28T04:48:29.357Z,5.72
2022-12-28T04:50:57.628Z,5.80
2022-12-28T04:53:25.270Z,5.43
2022-12-28T04:55:53.852Z,5.80
2022-12-28T04:58:21.799Z,6.15
2022-12-28T05:00:50.932Z,5.47
2022-12-28T05:03:18.563Z,5.47
2022-12-28T05:05:46.225Z,5.38
2022-12-28T05:08:13.841Z,5.65
2022-12-28T05:10:41.489Z,5.50
2022-12-28T05:13:09.117Z,5.68
2022-12-28T05:15:38.852Z,5.40
2022-12-28T05:18:07.964Z,5.70
2022-12-28T05:20:35.556Z,5.65
2022-12-28T05:23:03.175Z,5.70
2022-12-28T05:25:32.730Z,5.40
2022-12-28T05:28:00.491Z,5.57
2022-12-28T05:30:28.165Z,5.25
2022-12-28T05:32:55.763Z,5.78
2022-12-28T05:35:24.749Z,6.28
2022-12-28T05:37:52.420Z,7.07
2022-12-28T05:40:20.058Z,5.90
2022-12-28T05:42:51.529Z,5.80
2022-12-28T05:45:20.016Z,5.60
2022-12-28T05:47:47.800Z,7.03
2022-12-28T05:50:15.500Z,5.10
2022-12-28T05:52:44.521Z,4.90
2022-12-28T05:55:12.251Z,4.90
2022-12-28T05:57:39.896Z,5.78
2022-12-28T06:00:08.998Z,5.43
2022-12-28T06:02:36.692Z,4.90
2022-12-28T06:05:04.687Z,5.00
2022-12-28T06:07:32.324Z,5.00
2022-12-28T06:10:01.236Z,5.22
2022-12-28T06:12:28.937Z,5.07
2022-12-28T06:14:56.673Z,4.35
2022-12-28T06:17:24.376Z,4.28
2022-12-28T06:19:52.003Z,4.10
2022-12-28T06:22:19.579Z,4.30
2022-12-28T06:24:47.379Z,4.15
2022-12-28T06:27:16.349Z,3.90
2022-12-28T06:29:43.997Z,3.60
2022-12-28T06:32:11.622Z,4.32
2022-12-28T06:34:39.324Z,4.20
2022-12-28T06:37:06.909Z,3.80
2022-12-28T06:39:34.571Z,3.72
2022-12-28T06:42:02.310Z,3.70
2022-12-28T06:44:31.216Z,3.70
2022-12-28T06:46:58.754Z,3.85
2022-12-28T06:49:26.291Z,3.90
2022-12-28T06:51:53.899Z,4.10
2022-12-28T06:54:21.468Z,3.90
2022-12-28T06:56:49.078Z,3.70
2022-12-28T06:59:16.634Z,4.10
2022-12-28T07:01:46.061Z,3.72
2022-12-28T07:04:13.946Z,3.90
2022-12-28T07:06:43.694Z,4.10
2022-12-28T07:09:13.339Z,3.25
2022-12-28T07:11:41.248Z,3.58
2022-12-28T07:14:09.389Z,3.22
2022-12-28T07:19:04.917Z,3.70
2022-12-28T07:21:34.517Z,3.60
2022-12-28T07:24:02.439Z,3.60
2022-12-28T07:26:32.087Z,3.30
2022-12-28T07:29:01.849Z,3.10
2022-12-28T07:31:33.743Z,3.42
2022-12-28T07:34:04.725Z,3.50
2022-12-28T07:36:33.729Z,3.25
2022-12-28T07:39:01.944Z,3.40
2022-12-28T07:41:32.739Z,3.53
2022-12-28T07:44:01.071Z,3.75
2022-12-28T07:46:30.502Z,3.60
2022-12-28T07:48:58.397Z,4.00
2022-12-28T07:51:29.455Z,4.00
2022-12-28T07:53:58.557Z,4.30
2022-12-28T07:56:27.719Z,4.28
2022-12-28T07:58:57.237Z,4.40
2022-12-28T08:01:26.700Z,3.80
2022-12-28T08:03:55.922Z,4.22
2022-12-28T08:06:23.939Z,4.00
2022-12-28T08:08:54.853Z,3.83
2022-12-28T08:11:24.850Z,4.00
2022-12-28T08:13:54.554Z,4.10
2022-12-28T08:16:24.372Z,3.88
2022-12-28T08:18:52.801Z,3.72
2022-12-28T08:21:22.426Z,3.60
2022-12-28T08:23:50.527Z,3.40
2022-12-28T08:26:21.656Z,3.35
2022-12-28T08:28:51.429Z,3.20
2022-12-28T08:31:22.911Z,3.28
2022-12-28T08:33:50.875Z,2.95
2022-12-28T08:36:18.656Z,2.90
2022-12-28T08:38:46.970Z,2.90
2022-12-28T08:41:16.804Z,3.00
2022-12-28T08:43:46.404Z,2.70
2022-12-28T08:46:16.473Z,2.60
2022-12-28T08:48:44.676Z,2.92
2022-12-28T08:51:14.586Z,2.80
2022-12-28T08:53:42.587Z,2.63
2022-12-28T08:56:13.538Z,2.50
2022-12-28T08:58:42.589Z,2.60
2022-12-28T09:01:13.593Z,2.55
2022-12-28T09:03:43.239Z,2.55
2022-12-28T09:06:12.967Z,2.42
2022-12-28T09:08:42.585Z,2.80
2022-12-28T09:11:13.149Z,2.47
2022-12-28T09:13:41.401Z,2.25
2022-12-28T09:16:12.761Z,2.60
2022-12-28T09:18:42.153Z,2.10
2022-12-28T09:21:12.004Z,2.55
2022-12-28T09:23:39.915Z,1.75
2022-12-28T09:26:08.670Z,5.07
2022-12-28T09:28:36.568Z,2.70
2022-12-28T09:31:05.330Z,2.00
2022-12-28T09:34:33.771Z,2.25
2022-12-28T09:36:42.949Z,2.42
2022-12-28T09:39:13.603Z,1.73
2022-12-28T09:41:48.125Z,1.48
2022-12-28T09:44:35.376Z,1.05
2022-12-28T09:47:12.409Z,1.35
2022-12-28T09:49:46.539Z,1.80
2022-12-28T09:52:28.116Z,1.58
2022-12-28T09:54:58.104Z,1.10
2022-12-28T09:57:33.822Z,1.20
2022-12-28T10:00:01.871Z,0.90
2022-12-28T10:02:34.598Z,0.90
2022-12-28T10:05:03.674Z,0.90
2022-12-28T10:07:31.354Z,0.90
2022-12-28T10:09:59.688Z,0.80
2022-12-28T10:12:27.395Z,1.00
2022-12-28T10:14:55.384Z,1.80
2022-12-28T10:17:28.323Z,1.60
2022-12-28T10:19:58.400Z,1.73
2022-12-28T10:22:35.574Z,1.50
2022-12-28T10:25:03.295Z,1.07
2022-12-28T10:27:32.678Z,0.90
2022-12-28T10:30:02.969Z,0.90
2022-12-28T10:32:49.431Z,1.30
2022-12-28T10:35:24.465Z,1.40
2022-12-28T10:37:58.467Z,1.02
2022-12-28T10:40:29.216Z,1.10
2022-12-28T10:42:57.682Z,0.98
2022-12-28T10:45:34.646Z,1.70
2022-12-28T10:48:03.441Z,3.53
2022-12-28T10:50:52.671Z,2.05
2022-12-28T10:53:27.201Z,1.58
2022-12-28T10:56:21.645Z,1.70
2022-12-28T10:58:50.957Z,2.58
2022-12-28T11:01:21.281Z,1.90
2022-12-28T11:04:01.160Z,1.48
2022-12-28T11:06:30.256Z,1.58
2022-12-28T11:09:06.561Z,1.10
2022-12-28T11:11:34.939Z,1.80
2022-12-28T11:14:08.068Z,1.00
2022-12-28T11:16:38.552Z,1.10
2022-12-28T11:19:06.381Z,1.20
2022-12-28T11:21:34.954Z,0.80
2022-12-28T11:24:05.421Z,1.20
2022-12-28T11:26:34.156Z,1.00
2022-12-28T11:29:02.787Z,2.10
2022-12-28T11:31:35.604Z,1.40
2022-12-28T11:34:06.207Z,1.17
2022-12-28T11:36:40.072Z,0.90
2022-12-28T11:39:46.339Z,0.98
2022-12-28T11:42:39.397Z,1.67
2022-12-28T11:45:14.331Z,2.30
2022-12-28T11:47:41.972Z,1.48
2022-12-28T11:50:50.626Z,3.05
2022-12-28T11:53:24.955Z,3.00
2022-12-28T11:56:08.737Z,5.18
2022-12-28T11:59:04.673Z,5.45
2022-12-28T12:01:53.391Z,0.80
2022-12-28T12:04:33.351Z,2.33
2022-12-28T12:07:17.040Z,1.20
2022-12-28T12:09:46.545Z,1.10
2022-12-28T12:12:53.302Z,1.33
2022-12-28T12:15:26.344Z,1.40
2022-12-28T12:17:58.650Z,1.20
2022-12-28T12:20:35.218Z,1.43
2022-12-28T12:23:07.249Z,2.75
2022-12-28T12:25:40.073Z,2.05
2022-12-28T12:28:17.837Z,2.13
2022-12-28T12:30:47.116Z,1.48
2022-12-28T12:33:19.517Z,0.80
2022-12-28T12:36:01.246Z,1.00
2022-12-28T12:38:45.073Z,0.90
2022-12-28T12:41:25.138Z,1.00
2022-12-28T12:44:10.170Z,0.70
2022-12-28T12:47:06.055Z,1.00
2022-12-28T12:50:10.217Z,0.90
2022-12-28T12:52:43.308Z,1.00
2022-12-28T12:55:22.637Z,0.82
2022-12-28T12:57:59.488Z,1.10
2022-12-28T13:00:41.540Z,0.93
2022-12-28T13:03:25.179Z,0.60
2022-12-28T13:05:55.387Z,0.80
2022-12-28T13:08:27.433Z,0.83
2022-12-28T13:10:56.347Z,0.73
2022-12-28T13:13:30.407Z,0.70
2022-12-28T13:16:02.874Z,0.77
2022-12-28T13:18:46.628Z,0.50
2022-12-28T13:21:20.534Z,0.85
2022-12-28T13:23:48.577Z,0.60
2022-12-28T13:26:17.284Z,0.52
2022-12-28T13:28:51.926Z,0.80
2022-12-28T13:31:23.501Z,0.80
2022-12-28T13:33:59.476Z,0.80
2022-12-28T13:36:27.806Z,0.60
2022-12-28T13:39:05.014Z,0.70
2022-12-28T13:41:36.027Z,0.70
2022-12-28T13:44:22.869Z,0.80
2022-12-28T13:46:57.390Z,1.40
2022-12-28T13:49:26.855Z,1.50
2022-12-28T13:51:56.308Z,1.00
2022-12-28T13:54:25.717Z,0.82
2022-12-28T13:57:14.420Z,2.20
2022-12-28T13:59:44.571Z,1.92
2022-12-28T14:02:18.372Z,1.75
2022-12-28T14:04:54.202Z,2.93
2022-12-28T14:07:25.898Z,1.20
2022-12-28T14:09:54.778Z,1.30
2022-12-28T14:12:22.864Z,2.85
2022-12-28T14:14:52.126Z,2.28
2022-12-28T14:17:21.983Z,1.10
2022-12-28T14:19:50.021Z,1.40
2022-12-28T14:22:32.142Z,1.30
2022-12-28T14:25:04.959Z,1.45
2022-12-28T14:27:36.742Z,2.20
2022-12-28T14:30:05.812Z,1.40
2022-12-28T14:32:42.257Z,2.30
2022-12-28T14:35:18.819Z,4.03
2022-12-28T14:37:50.896Z,2.70
2022-12-28T14:40:26.586Z,1.53
2022-12-28T14:42:56.110Z,1.33
2022-12-28T14:46:06.918Z,0.97
2022-12-28T14:48:33.689Z,2.70
2022-12-28T14:51:03.459Z,2.67
2022-12-28T14:53:31.572Z,1.98
2022-12-28T14:56:07.480Z,2.20
2022-12-28T14:58:47.851Z,0.70
2022-12-28T15:01:18.455Z,1.50
2022-12-28T15:03:52.348Z,1.50
2022-12-28T15:06:20.804Z,1.40
2022-12-28T15:08:50.038Z,1.20
2022-12-28T15:11:18.552Z,1.20
2022-12-28T15:13:46.297Z,1.30
2022-12-28T15:16:14.749Z,1.40
2022-12-28T15:18:44.949Z,1.00
2022-12-28T15:21:16.649Z,1.48
2022-12-28T15:23:45.536Z,1.15
2022-12-28T15:26:14.303Z,1.25
2022-12-28T15:28:42.129Z,1.48
2022-12-28T15:31:12.536Z,1.33
2022-12-28T15:33:40.573Z,1.90
2022-12-28T15:36:17.032Z,2.30
2022-12-28T15:38:46.963Z,2.75
2022-12-28T15:41:32.129Z,2.90
2022-12-28T15:43:59.741Z,2.78
2022-12-28T15:46:27.425Z,2.40
2022-12-28T15:48:55.239Z,1.85
2022-12-28T15:51:22.871Z,1.80
2022-12-28T15:53:51.729Z,1.95
2022-12-28T15:56:22.016Z,2.10
2022-12-28T15:58:49.660Z,1.80
2022-12-28T16:01:17.385Z,2.15
2022-12-28T16:03:45.198Z,2.05
2022-12-28T16:06:13.929Z,1.50
2022-12-28T16:08:41.637Z,1.48
2022-12-28T16:11:11.794Z,2.20
2022-12-28T16:13:39.407Z,1.75
2022-12-28T16:16:07.612Z,2.03
2022-12-28T16:18:35.705Z,2.55
2022-12-28T16:21:04.493Z,3.63
2022-12-28T16:23:33.137Z,2.08
2022-12-28T16:26:01.004Z,1.87
2022-12-28T16:28:30.694Z,2.15
2022-12-28T16:30:58.745Z,5.55
2022-12-28T16:33:27.072Z,2.83
2022-12-28T16:35:59.559Z,1.63
2022-12-28T16:38:29.769Z,1.95
2022-12-28T16:40:57.891Z,2.80
2022-12-28T16:43:25.475Z,2.33
2022-12-28T16:45:54.452Z,1.90
2022-12-28T16:48:22.266Z,2.50
2022-12-28T16:50:58.616Z,1.50
2022-12-28T16:53:26.541Z,4.78
2022-12-28T16:55:54.295Z,2.33
2022-12-28T16:58:22.009Z,2.57
2022-12-28T17:00:49.526Z,3.20
2022-12-28T17:03:18.557Z,1.65
2022-12-28T17:05:49.597Z,2.10
2022-12-28T17:08:17.674Z,3.38
2022-12-28T17:10:45.899Z,2.00
2022-12-28T17:13:13.485Z,2.00
2022-12-28T17:15:42.143Z,4.40
2022-12-28T17:18:10.541Z,2.33
2022-12-28T17:20:40.408Z,3.40
2022-12-28T17:23:08.524Z,5.03
2022-12-28T17:25:37.040Z,9.83
2022-12-28T17:28:05.152Z,5.47
2022-12-28T17:30:33.027Z,3.83
2022-12-28T17:33:01.396Z,4.60
2022-12-28T17:35:29.015Z,9.65
2022-12-28T17:37:57.909Z,5.85
2022-12-28T17:40:25.459Z,3.00
2022-12-28T17:42:53.012Z,2.45
2022-12-28T17:45:20.729Z,2.60
2022-12-28T17:47:48.343Z,2.83
2022-12-28T17:50:18.090Z,2.58
2022-12-28T17:52:45.996Z,2.58
2022-12-28T17:55:14.976Z,1.70
2022-12-28T17:57:42.650Z,1.58
2022-12-28T18:00:12.649Z,1.48
2022-12-28T18:02:40.472Z,1.40
2022-12-28T18:05:08.916Z,1.30
2022-12-28T18:07:36.621Z,2.63
2022-12-28T18:10:04.822Z,1.70
2022-12-28T18:12:33.741Z,1.58
2022-12-28T18:15:01.358Z,1.60
2022-12-28T18:17:29.154Z,2.30
2022-12-28T18:19:56.894Z,3.65
2022-12-28T18:22:24.750Z,1.90
2022-12-28T18:24:53.441Z,3.15
2022-12-28T18:27:21.564Z,4.80
2022-12-28T18:29:52.069Z,3.22
2022-12-28T18:32:19.819Z,1.92
2022-12-28T18:34:47.688Z,1.63
2022-12-28T18:37:15.323Z,1.60
2022-12-28T18:39:42.906Z,1.70
2022-12-28T18:42:10.408Z,1.90
2022-12-28T18:44:38.145Z,2.35
2022-12-28T18:47:07.103Z,3.20
2022-12-28T18:49:34.590Z,3.25
2022-12-28T18:52:02.314Z,2.92
2022-12-28T18:54:29.928Z,2.50
2022-12-28T18:56:57.539Z,3.00
2022-12-28T18:59:25.351Z,3.50
2022-12-28T19:02:06.544Z,2.40
2022-12-28T19:04:36.306Z,2.75
2022-12-28T19:07:04.277Z,2.50
2022-12-28T19:09:31.913Z,2.75
2022-12-28T19:12:00.051Z,2.10
2022-12-28T19:14:27.824Z,1.65
2022-12-28T19:16:55.380Z,2.88
2022-12-28T19:19:22.940Z,1.98
2022-12-28T19:21:58.492Z,2.45
2022-12-28T19:24:26.626Z,2.17
2022-12-28T19:26:54.602Z,1.37
2022-12-28T19:29:22.386Z,1.90
2022-12-28T19:31:50.165Z,7.13
2022-12-28T19:34:18.314Z,4.70
2022-12-28T19:36:46.099Z,3.33
2022-12-28T19:39:15.122Z,3.17
2022-12-28T19:41:42.911Z,2.10
2022-12-28T19:44:10.919Z,3.10
2022-12-28T19:46:39.168Z,2.90
2022-12-28T19:49:06.894Z,2.35
2022-12-28T19:51:34.952Z,2.70
2022-12-28T19:54:03.115Z,1.80
2022-12-28T19:56:32.654Z,1.83
2022-12-28T19:59:06.566Z,2.03
2022-12-28T20:01:36.576Z,2.30
2022-12-28T20:04:12.485Z,1.80
2022-12-28T20:06:42.617Z,1.70
2022-12-28T20:09:10.981Z,2.05
2022-12-28T20:11:40.613Z,2.30
2022-12-28T20:16:52.049Z,2.20
2022-12-28T20:19:19.800Z,2.65
2022-12-28T20:21:49.350Z,2.45
2022-12-28T20:24:17.836Z,2.00
2022-12-28T20:26:45.486Z,1.88
2022-12-28T20:29:16.140Z,2.08
2022-12-28T20:31:43.944Z,2.10
2022-12-28T20:34:13.005Z,2.08
2022-12-28T20:36:40.742Z,2.00
2022-12-28T20:39:08.446Z,2.13
2022-12-28T20:41:54.089Z,2.27
2022-12-28T20:44:25.501Z,1.70
2022-12-28T20:46:53.612Z,1.90
2022-12-28T20:49:22.846Z,2.20
2022-12-28T20:51:50.642Z,2.00
2022-12-28T20:54:19.391Z,2.20
2022-12-28T20:56:54.000Z,2.10
2022-12-28T20:59:22.782Z,2.10
2022-12-28T21:01:50.571Z,2.10
2022-12-28T21:04:18.336Z,2.35
2022-12-28T21:06:47.342Z,2.10
2022-12-28T21:09:14.959Z,2.30
2022-12-28T21:11:42.480Z,2.00
2022-12-28T21:14:10.050Z,2.00
2022-12-28T21:16:37.995Z,2.25
2022-12-28T21:19:05.811Z,2.10
2022-12-28T21:21:33.393Z,2.40
2022-12-28T21:24:03.985Z,2.30
2022-12-28T21:26:31.646Z,2.30
2022-12-28T21:29:00.059Z,2.80
2022-12-28T21:31:27.754Z,2.25
2022-12-28T21:33:55.742Z,2.50
2022-12-28T21:36:23.454Z,2.30
2022-12-28T21:38:51.228Z,2.28
2022-12-28T21:41:42.420Z,2.25
2022-12-28T21:44:12.888Z,2.30
2022-12-28T21:46:41.447Z,2.22
2022-12-28T21:49:09.789Z,2.17
2022-12-28T21:51:38.733Z,1.60
2022-12-28T21:54:08.020Z,1.80
2022-12-28T21:56:37.389Z,2.10
2022-12-28T21:59:06.110Z,1.80
2022-12-28T22:01:51.551Z,2.30
2022-12-28T22:04:38.697Z,2.25
2022-12-28T22:07:07.566Z,2.38
2022-12-28T22:09:53.898Z,2.30
2022-12-28T22:12:37.646Z,1.70
2022-12-28T22:15:26.150Z,1.60
2022-12-28T22:17:55.808Z,1.70
2022-12-28T22:20:24.025Z,2.22
2022-12-28T22:22:51.620Z,1.77
2022-12-28T22:25:19.337Z,1.80
2022-12-28T22:27:48.283Z,1.90
2022-12-28T22:30:15.996Z,2.00
2022-12-28T22:32:43.873Z,1.70
2022-12-28T22:35:11.677Z,1.85
2022-12-28T22:37:39.376Z,1.50
2022-12-28T22:40:07.838Z,1.95
2022-12-28T22:42:36.167Z,1.70
2022-12-28T22:45:05.488Z,1.73
2022-12-28T22:47:33.066Z,1.42
2022-12-28T22:50:00.826Z,1.60
2022-12-28T22:52:28.575Z,2.60
2022-12-28T22:54:56.199Z,1.48
2022-12-28T22:57:23.805Z,1.60
2022-12-28T22:59:51.432Z,1.85
2022-12-28T23:02:20.657Z,1.75
2022-12-28T23:04:48.384Z,2.65
2022-12-28T23:07:16.008Z,1.70
2022-12-28T23:09:43.553Z,1.50
2022-12-28T23:12:11.186Z,1.85
2022-12-28T23:14:56.292Z,1.52
2022-12-28T23:17:26.655Z,1.35
2022-12-28T23:20:14.236Z,0.93
2022-12-28T23:22:59.369Z,1.90
2022-12-28T23:25:55.776Z,1.90
2022-12-28T23:28:23.397Z,1.70
2022-12-28T23:30:52.398Z,1.33
2022-12-28T23:33:21.423Z,1.20
2022-12-28T23:35:49.411Z,1.63
2022-12-28T23:38:17.007Z,1.30
2022-12-28T23:40:44.602Z,1.45
2022-12-28T23:43:12.255Z,1.40
2022-12-28T23:45:39.794Z,1.50
2022-12-28T23:48:07.473Z,1.40
2022-12-28T23:50:36.385Z,1.50
2022-12-28T23:53:03.946Z,1.30
2022-12-28T23:55:31.503Z,1.50
2022-12-28T23:57:59.135Z,1.20
